Time;durP1;ratioP1;P1;durP2;ratioP2;P2;SDS_P1;SDS_P2;PMS_P1;PMS_P2;Temp;Humidity;BMP_temperature;BMP_pressure;BME280_temperature;BME280_humidity;BME280_pressure;Samples;Min_cycle;Max_cycle;Signal;HPM_P1;HPM_P2
2021/05/04 00:00:24;;;;;;;3.65;2.33;;;;;;;30.06;18.56;94703.00;5073698;28;20056;-45
2021/05/04 00:02:51;;;;;;;2.83;1.92;;;;;;;31.31;17.36;94716.78;5094028;28;20358;-44
2021/05/04 00:05:18;;;;;;;2.90;2.22;;;;;;;31.51;17.06;94712.97;5082328;28;20052;-49
2021/05/04 00:07:45;;;;;;;2.85;2.53;;;;;;;31.05;17.83;94700.16;5075452;28;20052;-44
2021/05/04 00:10:12;;;;;;;2.83;2.30;;;;;;;30.08;18.17;94700.66;5092718;28;20795;-44
2021/05/04 00:12:39;;;;;;;3.85;2.30;;;;;;;31.57;16.74;94707.84;5095577;28;20052;-45
2021/05/04 00:15:08;;;;;;;3.38;2.38;;;;;;;30.16;18.14;94703.28;5085086;28;20481;-43
2021/05/04 00:17:35;;;;;;;2.50;2.30;;;;;;;30.84;17.61;94700.47;5077968;28;20047;-66
2021/05/04 00:20:03;;;;;;;2.97;2.47;;;;;;;30.42;17.70;94691.78;5095861;28;20056;-48
2021/05/04 00:22:30;;;;;;;3.55;2.38;;;;;;;29.85;18.07;94700.50;5095474;28;20048;-58
2021/05/04 00:24:57;;;;;;;2.83;2.30;;;;;;;29.75;18.24;94704.09;5086262;28;20048;-59
2021/05/04 00:27:25;;;;;;;3.88;2.47;;;;;;;29.76;18.44;94705.63;5075209;28;20041;-65
2021/05/04 00:30:06;;;;;;;3.42;2.35;;;;;;;29.53;18.30;94713.53;5074996;28;20447;-65
2021/05/04 00:32:33;;;;;;;3.53;2.50;;;;;;;29.53;18.58;94708.16;5074490;28;20515;-66
2021/05/04 00:35:00;;;;;;;3.40;2.35;;;;;;;29.81;18.59;94715.94;5074624;28;20060;-60
2021/05/04 00:37:27;;;;;;;3.53;2.33;;;;;;;29.42;19.01;94714.38;5074945;28;20043;-60
2021/05/04 00:39:54;;;;;;;3.33;2.50;;;;;;;29.29;19.23;94715.25;5074936;28;20045;-46
2021/05/04 00:42:24;;;;;;;3.92;2.65;;;;;;;29.89;18.85;94714.69;5074804;28;20355;-48
2021/05/04 00:44:52;;;;;;;4.10;2.80;;;;;;;30.11;18.14;94709.88;5074339;28;20059;-53
2021/05/04 00:47:19;;;;;;;2.97;2.35;;;;;;;30.62;17.52;94710.81;5071657;28;20057;-47
2021/05/04 00:49:47;;;;;;;4.60;2.47;;;;;;;30.80;17.45;94718.66;5075413;28;20051;-47
2021/05/04 00:52:14;;;;;;;3.15;2.35;;;;;;;30.66;17.44;94717.69;5075384;28;20052;-48
2021/05/04 00:54:42;;;;;;;3.53;2.50;;;;;;;30.14;18.01;94709.06;5074953;28;20040;-55
2021/05/04 00:57:11;;;;;;;3.97;2.70;;;;;;;30.07;18.13;94706.47;5075234;28;20370;-49
2021/05/04 00:59:39;;;;;;;3.15;2.85;;;;;;;29.33;18.78;94700.59;5075440;28;20044;-67
2021/05/04 01:02:06;;;;;;;3.72;2.40;;;;;;;30.11;18.14;94696.41;5075857;28;20055;-66
2021/05/04 01:04:33;;;;;;;4.32;2.80;;;;;;;30.52;17.81;94700.91;5090279;28;20052;-60
2021/05/04 01:07:00;;;;;;;2.53;2.30;;;;;;;28.97;19.25;94704.75;5074416;28;20060;-55
2021/05/04 01:09:27;;;;;;;3.80;2.90;;;;;;;29.80;18.59;94698.25;5074466;28;20462;-49
2021/05/04 01:11:55;;;;;;;4.68;2.92;;;;;;;30.24;18.42;94699.34;5075088;28;20067;-45
2021/05/04 01:14:23;;;;;;;3.72;2.58;;;;;;;29.52;19.58;94693.91;5074743;28;20051;-43
2021/05/04 01:16:53;;;;;;;3.45;2.53;;;;;;;29.61;19.79;94690.75;5089936;28;20504;-45
2021/05/04 01:19:22;;;;;;;3.08;2.35;;;;;;;29.83;19.41;94694.75;5095262;28;20058;-43
2021/05/04 01:21:49;;;;;;;2.95;2.40;;;;;;;29.51;19.99;94686.25;5095394;28;20056;-44
2021/05/04 01:24:17;;;;;;;3.33;2.47;;;;;;;29.42;20.21;94692.84;5093609;28;20075;-44
2021/05/04 01:26:46;;;;;;;3.35;2.70;;;;;;;29.77;19.65;94696.38;5074984;28;20059;-56
2021/05/04 01:29:14;;;;;;;4.90;2.92;;;;;;;29.35;19.92;94686.72;5074886;28;20426;-65
2021/05/04 01:31:42;;;;;;;4.38;2.67;;;;;;;30.07;19.38;94696.44;5075064;28;20056;-45
2021/05/04 01:34:11;;;;;;;3.05;2.20;;;;;;;30.07;19.28;94693.75;5075040;28;20051;-65
2021/05/04 01:36:39;;;;;;;4.32;2.55;;;;;;;29.82;19.37;94697.84;5075376;28;20049;-44
2021/05/04 01:39:08;;;;;;;4.38;2.47;;;;;;;29.14;19.99;94693.06;5075267;28;20037;-43
2021/05/04 01:41:35;;;;;;;4.30;2.20;;;;;;;29.52;19.46;94696.63;5075270;28;20045;-43
2021/05/04 01:44:03;;;;;;;4.78;2.65;;;;;;;30.02;18.47;94696.88;5079052;28;20051;-42
2021/05/04 01:46:33;;;;;;;3.42;2.55;;;;;;;29.13;19.11;94691.53;5079872;28;20056;-44
2021/05/04 01:49:02;;;;;;;5.57;3.15;;;;;;;29.53;19.46;94692.75;5099313;28;20485;-44
2021/05/04 01:51:29;;;;;;;3.35;2.45;;;;;;;29.21;19.55;94698.41;5099065;28;20048;-43
2021/05/04 01:53:57;;;;;;;3.53;2.50;;;;;;;29.48;19.54;94695.13;5098925;28;20051;-44
2021/05/04 01:56:24;;;;;;;4.30;2.60;;;;;;;29.80;19.73;94703.66;5080616;28;20041;-44
2021/05/04 01:58:54;;;;;;;3.35;2.40;;;;;;;29.33;20.38;94695.22;5078638;28;20048;-48
2021/05/04 02:01:21;;;;;;;4.38;2.70;;;;;;;29.96;19.34;94709.25;5093297;28;20058;-44
2021/05/04 02:03:48;;;;;;;5.13;2.90;;;;;;;29.79;18.68;94699.44;5098972;28;20482;-43
2021/05/04 02:06:15;;;;;;;5.75;2.67;;;;;;;28.73;20.36;94696.41;5082095;28;20439;-44
2021/05/04 02:08:42;;;;;;;3.90;2.30;;;;;;;28.99;20.11;94703.19;5078444;28;20048;-43
2021/05/04 02:11:10;;;;;;;2.90;2.60;;;;;;;29.90;19.24;94708.16;5078484;28;20040;-44
2021/05/04 02:13:37;;;;;;;2.95;2.25;;;;;;;29.95;19.70;94706.97;5078465;28;20052;-46
2021/05/04 02:16:05;;;;;;;3.47;2.70;;;;;;;29.36;19.61;94705.19;5086596;28;20048;-44
2021/05/04 02:18:33;;;;;;;2.83;2.35;;;;;;;29.55;18.67;94705.81;5098576;28;20670;-44
2021/05/04 02:21:12;;;;;;;7.13;2.53;;;;;;;29.78;18.70;94703.28;5098239;28;20047;-45
2021/05/04 02:23:39;;;;;;;3.28;2.50;;;;;;;29.56;18.93;94700.03;5098334;28;20118;-44
2021/05/04 02:26:06;;;;;;;3.17;2.78;;;;;;;29.61;18.71;94696.13;5083402;28;20064;-66
2021/05/04 02:28:35;;;;;;;3.75;2.53;;;;;;;29.55;18.49;94701.19;5090781;28;20047;-57
2021/05/04 02:31:03;;;;;;;3.83;2.70;;;;;;;30.00;18.18;94693.81;5080252;28;20063;-58
2021/05/04 02:33:30;;;;;;;3.08;2.50;;;;;;;30.88;17.27;94703.88;5098381;28;20055;-64
2021/05/04 02:35:57;;;;;;;4.22;2.70;;;;;;;29.78;18.27;94703.28;5084842;28;20064;-49
2021/05/04 02:38:25;;;;;;;4.53;3.10;;;;;;;29.20;18.85;94707.63;5077916;28;20040;-46
2021/05/04 02:40:52;;;;;;;3.78;2.70;;;;;;;29.91;18.06;94701.59;5077889;28;20052;-58
2021/05/04 02:43:19;;;;;;;3.72;2.60;;;;;;;29.11;19.03;94707.31;5077831;28;20439;-47
2021/05/04 02:45:47;;;;;;;4.38;2.58;;;;;;;28.82;19.22;94710.16;5079711;28;20052;-52
2021/05/04 02:48:14;;;;;;;4.40;3.00;;;;;;;29.53;19.21;94703.53;5077743;28;20056;-44
2021/05/04 02:50:41;;;;;;;5.10;2.80;;;;;;;29.25;18.91;94709.91;5077649;28;20052;-53
2021/05/04 02:53:08;;;;;;;2.55;2.13;;;;;;;29.32;18.94;94704.44;5059523;28;20048;-59
2021/05/04 02:55:36;;;;;;;4.53;3.08;;;;;;;28.95;19.33;94713.22;5076940;28;20040;-50
2021/05/04 02:58:03;;;;;;;3.40;2.80;;;;;;;28.99;19.26;94718.56;5077733;28;20044;-44
2021/05/04 03:00:30;;;;;;;3.03;2.65;;;;;;;29.58;18.85;94726.56;5077812;28;20095;-65
2021/05/04 03:02:57;;;;;;;6.63;2.97;;;;;;;29.13;18.56;94718.44;5077237;28;20052;-57
2021/05/04 03:05:25;;;;;;;4.88;2.85;;;;;;;29.33;18.76;94715.97;5077255;28;20055;-51
2021/05/04 03:07:52;;;;;;;4.97;2.92;;;;;;;29.17;18.63;94721.91;5077247;28;20063;-50
2021/05/04 03:10:19;;;;;;;3.20;2.42;;;;;;;28.95;19.31;94723.22;5077097;28;20045;-45
2021/05/04 03:12:46;;;;;;;3.47;2.65;;;;;;;28.59;19.22;94720.69;5077280;28;20056;-44
2021/05/04 03:15:14;;;;;;;3.08;2.70;;;;;;;28.54;19.63;94732.63;5079863;28;20044;-64
2021/05/04 03:17:41;;;;;;;3.58;2.40;;;;;;;29.33;18.82;94737.53;5079591;28;20055;-60
2021/05/04 03:20:08;;;;;;;4.00;2.80;;;;;;;29.30;18.93;94733.69;5097346;28;20048;-66
2021/05/04 03:22:36;;;;;;;4.00;2.90;;;;;;;29.33;19.12;94740.97;5097394;28;20451;-71
2021/05/04 03:25:03;;;;;;;4.38;3.05;;;;;;;28.82;19.03;94742.47;5062574;28;20055;-44
2021/05/04 03:27:30;;;;;;;2.78;2.25;;;;;;;29.48;18.70;94738.97;5097104;28;20353;-42
2021/05/04 03:29:58;;;;;;;3.33;2.50;;;;;;;29.08;19.42;94754.63;5097078;28;20048;-43
2021/05/04 03:32:25;;;;;;;3.85;2.70;;;;;;;29.59;18.55;94738.88;5096947;28;20052;-43
2021/05/04 03:34:52;;;;;;;3.13;2.58;;;;;;;29.27;18.79;94741.81;5096571;28;20044;-43
2021/05/04 03:37:19;;;;;;;4.30;2.53;;;;;;;29.79;18.47;94742.53;5097042;28;20052;-42
2021/05/04 03:39:46;;;;;;;6.03;2.75;;;;;;;29.66;17.85;94744.94;5097280;28;20040;-43
2021/05/04 03:42:13;;;;;;;3.35;2.78;;;;;;;28.74;18.76;94743.66;5097034;28;20063;-43
2021/05/04 03:44:40;;;;;;;3.92;2.55;;;;;;;29.54;18.48;94744.69;5096666;28;20051;-43
2021/05/04 03:47:08;;;;;;;3.80;2.75;;;;;;;28.56;19.81;94745.69;5081974;28;20369;-45
2021/05/04 03:49:35;;;;;;;4.07;2.88;;;;;;;29.44;18.96;94743.59;5076708;28;20048;-47
2021/05/04 03:52:02;;;;;;;3.55;2.58;;;;;;;28.61;19.08;94741.81;5076773;28;20044;-43
2021/05/04 03:54:30;;;;;;;3.28;2.65;;;;;;;29.15;18.36;94743.06;5076333;28;20055;-53
2021/05/04 03:56:58;;;;;;;3.60;2.78;;;;;;;29.39;18.26;94736.69;5076306;28;20386;-42
2021/05/04 03:59:25;;;;;;;3.30;2.55;;;;;;;28.84;19.12;94742.06;5076638;28;20036;-43
2021/05/04 04:01:52;;;;;;;3.85;2.83;;;;;;;28.97;18.83;94742.41;5076543;28;20055;-66
2021/05/04 04:04:19;;;;;;;3.40;2.80;;;;;;;28.67;18.65;94746.41;5058598;28;20056;-46
2021/05/04 04:06:46;;;;;;;4.25;3.08;;;;;;;28.90;18.30;94750.53;5076153;28;20051;-66
2021/05/04 04:09:13;;;;;;;3.80;2.63;;;;;;;30.26;17.50;94748.22;5094778;28;20443;-57
2021/05/04 04:11:41;;;;;;;3.85;2.40;;;;;;;31.10;16.75;94752.94;5095440;28;20074;-44
2021/05/04 04:14:08;;;;;;;2.70;2.30;;;;;;;31.75;16.07;94751.56;5096340;28;20052;-43
2021/05/04 04:16:35;;;;;;;4.97;2.50;;;;;;;32.03;16.00;94749.53;5090938;28;20450;-43
2021/05/04 04:19:02;;;;;;;5.35;2.70;;;;;;;31.02;16.48;94754.22;5078840;28;20041;-43
2021/05/04 04:21:29;;;;;;;4.45;3.05;;;;;;;29.95;17.47;94753.53;5076632;28;20394;-46
2021/05/04 04:24:02;;;;;;;4.43;2.78;;;;;;;30.11;17.95;94754.94;5095972;28;20048;-48
2021/05/04 04:26:29;;;;;;;3.58;2.70;;;;;;;29.79;18.56;94753.31;5094782;28;20054;-47
2021/05/04 04:28:56;;;;;;;3.22;2.78;;;;;;;29.70;18.45;94755.72;5080305;28;20123;-59
2021/05/04 04:31:23;;;;;;;4.57;2.63;;;;;;;30.35;18.07;94756.59;5075049;28;20044;-50
2021/05/04 04:33:50;;;;;;;2.95;2.53;;;;;;;29.05;18.90;94754.66;5075673;28;20055;-43
2021/05/04 04:36:17;;;;;;;3.58;2.45;;;;;;;33.46;14.75;94753.50;5078469;28;20447;-70
2021/05/04 04:38:44;;;;;;;4.38;2.85;;;;;;;32.18;15.24;94767.75;5082180;28;20049;-46
2021/05/04 04:41:12;;;;;;;3.75;2.80;;;;;;;31.65;15.71;94768.66;5075742;28;20051;-52
2021/05/04 04:43:39;;;;;;;5.35;2.85;;;;;;;33.21;14.78;94769.53;5075589;28;20083;-50
2021/05/04 04:46:06;;;;;;;3.65;3.10;;;;;;;32.20;15.62;94770.03;5084154;28;20051;-50
2021/05/04 04:48:33;;;;;;;4.05;3.03;;;;;;;31.65;15.59;94774.06;5095787;28;20051;-52
2021/05/04 04:51:00;;;;;;;3.38;2.65;;;;;;;32.45;14.82;94770.34;5095730;28;20053;-46
2021/05/04 04:53:27;;;;;;;5.38;2.90;;;;;;;30.52;17.40;94760.25;5095500;28;20052;-51
2021/05/04 04:55:54;;;;;;;4.90;2.60;;;;;;;32.98;15.06;94768.50;5096036;28;20040;-46
2021/05/04 04:58:22;;;;;;;7.10;2.85;;;;;;;34.53;13.97;94762.34;5094516;28;20374;-44
2021/05/04 05:00:49;;;;;;;2.72;2.40;;;;;;;34.92;13.20;94772.13;5095548;28;20043;-39
2021/05/04 05:03:16;;;;;;;3.70;2.58;;;;;;;35.48;12.97;94777.03;5095296;28;20047;-40
2021/05/04 05:05:43;;;;;;;4.88;2.22;;;;;;;35.83;12.67;94766.97;5095540;28;20082;-40
2021/05/04 05:08:10;;;;;;;3.17;2.05;;;;;;;35.95;12.22;94773.56;5087342;28;20044;-40
2021/05/04 05:10:37;;;;;;;4.32;2.50;;;;;;;35.00;13.11;94771.91;5088006;28;20052;-41
2021/05/04 05:13:04;;;;;;;4.07;2.47;;;;;;;35.63;12.40;94780.03;5095172;28;20052;-40
2021/05/04 05:15:37;;;;;;;2.88;2.30;;;;;;;35.86;12.07;94770.00;5091120;28;20459;-63
2021/05/04 05:18:05;;;;;;;3.30;2.40;;;;;;;35.79;12.32;94762.81;5074670;28;20044;-63
2021/05/04 05:20:37;;;;;;;4.15;2.40;;;;;;;35.62;12.43;94772.31;5057822;28;20052;-59
2021/05/04 05:23:04;;;;;;;7.15;6.20;;;;;;;36.37;12.10;94756.97;5086484;28;20047;-44
2021/05/04 05:25:32;;;;;;;15.05;12.45;;;;;;;36.03;12.60;94763.19;5095500;28;20051;-66
2021/05/04 05:28:00;;;;;;;13.23;11.05;;;;;;;36.50;12.34;94760.41;5089189;28;20051;-55
2021/05/04 05:30:27;;;;;;;6.85;5.72;;;;;;;36.58;11.86;94767.09;5075099;28;20052;-58
2021/05/04 05:32:54;;;;;;;4.30;3.70;;;;;;;36.46;11.54;94761.75;5057326;28;20048;-40
2021/05/04 05:35:21;;;;;;;3.58;3.08;;;;;;;36.69;11.40;94764.72;5088636;28;20070;-40
2021/05/04 05:37:48;;;;;;;3.90;3.38;;;;;;;36.67;11.31;94758.97;5090936;28;20447;-39
2021/05/04 05:40:15;;;;;;;4.15;2.80;;;;;;;36.59;11.43;94754.25;5075087;28;20367;-40
2021/05/04 05:42:43;;;;;;;3.42;2.60;;;;;;;37.14;11.12;94749.84;5074800;28;20371;-54
2021/05/04 05:45:10;;;;;;;3.28;2.97;;;;;;;37.17;11.05;94757.09;5091648;28;20044;-56
2021/05/04 05:47:39;;;;;;;3.50;2.63;;;;;;;36.56;11.94;94755.91;5089103;28;20055;-48
2021/05/04 05:50:06;;;;;;;3.10;2.63;;;;;;;36.51;11.72;94742.88;5089669;28;20044;-40
2021/05/04 05:52:33;;;;;;;3.42;2.65;;;;;;;36.40;11.78;94739.75;5094934;28;20059;-40
2021/05/04 05:55:00;;;;;;;4.05;2.75;;;;;;;35.65;12.12;94730.66;5094708;28;20485;-40
2021/05/04 05:57:27;;;;;;;3.42;2.40;;;;;;;36.18;11.95;94725.38;5074531;28;20052;-40
2021/05/04 05:59:54;;;;;;;5.82;2.70;;;;;;;36.74;12.10;94719.84;5074878;28;20052;-40
2021/05/04 06:02:22;;;;;;;4.15;2.80;;;;;;;36.70;11.79;94722.72;5074744;28;20378;-40
2021/05/04 06:04:51;;;;;;;4.90;3.00;;;;;;;36.06;12.33;94719.56;5074855;28;20474;-60
2021/05/04 06:07:18;;;;;;;4.22;2.75;;;;;;;36.14;12.08;94715.38;5074730;28;20055;-41
2021/05/04 06:09:45;;;;;;;3.38;2.55;;;;;;;36.73;11.57;94716.34;5074417;28;20048;-47
2021/05/04 06:12:13;;;;;;;3.63;2.97;;;;;;;35.93;12.46;94716.13;5074845;28;20052;-53
2021/05/04 06:14:40;;;;;;;4.00;2.72;;;;;;;37.03;11.80;94705.91;5074737;28;20477;-62
2021/05/04 06:17:07;;;;;;;4.65;2.80;;;;;;;37.21;11.12;94710.63;5091599;28;20059;-65
2021/05/04 06:19:34;;;;;;;3.80;2.60;;;;;;;36.55;12.04;94694.47;5077099;28;20052;-47
2021/05/04 06:22:01;;;;;;;3.60;2.70;;;;;;;36.81;11.52;94697.06;5074677;28;20057;-63
2021/05/04 06:24:29;;;;;;;2.78;2.33;;;;;;;36.13;11.95;94696.75;5081974;28;20044;-65
2021/05/04 06:26:58;;;;;;;4.28;2.30;;;;;;;37.55;11.41;94690.59;5094756;28;20048;-62
2021/05/04 06:29:25;;;;;;;2.67;2.10;;;;;;;37.38;11.31;94692.09;5084341;28;20048;-56
2021/05/04 06:31:58;;;;;;;2.75;2.33;;;;;;;36.99;11.25;94700.59;5098576;28;20051;-49
2021/05/04 06:34:26;;;;;;;2.75;2.47;;;;;;;37.02;11.63;94693.50;5093149;28;20074;-61
2021/05/04 06:36:53;;;;;;;3.92;2.67;;;;;;;37.24;12.01;94679.78;5095269;28;20052;-65
2021/05/04 06:39:20;;;;;;;4.72;2.50;;;;;;;36.44;12.41;94683.25;5098064;28;20324;-58
2021/05/04 06:41:48;;;;;;;4.68;2.80;;;;;;;35.91;12.66;94687.84;5098083;28;20454;-61
2021/05/04 06:44:15;;;;;;;3.38;2.85;;;;;;;35.40;12.65;94690.72;5097950;28;20047;-45
2021/05/04 06:46:42;;;;;;;5.57;3.60;;;;;;;35.88;12.45;94680.56;5094985;28;20450;-54
2021/05/04 06:49:09;;;;;;;2.90;2.45;;;;;;;35.41;12.41;94690.28;5097962;28;20451;-54
2021/05/04 06:51:37;;;;;;;4.90;2.78;;;;;;;34.97;12.67;94685.88;5098024;28;20048;-40
2021/05/04 06:54:04;;;;;;;4.78;2.83;;;;;;;35.99;11.88;94684.44;5098302;28;20044;-50
2021/05/04 06:56:31;;;;;;;5.65;2.53;;;;;;;36.40;11.67;94683.34;5083272;28;20052;-44
2021/05/04 06:58:59;;;;;;;3.15;2.47;;;;;;;36.36;11.47;94679.25;5077946;28;20375;-48
2021/05/04 07:01:26;;;;;;;4.15;3.72;;;;;;;34.97;12.78;94685.88;5087683;28;20052;-49
2021/05/04 07:03:53;;;;;;;4.47;3.53;;;;;;;35.30;12.64;94684.41;5097930;28;20044;-65
2021/05/04 07:06:20;;;;;;;4.97;4.38;;;;;;;34.86;13.72;94673.34;5096925;28;20052;-66
2021/05/04 07:08:47;;;;;;;5.63;4.30;;;;;;;34.80;13.55;94671.59;5097782;28;20048;-62
2021/05/04 07:11:15;;;;;;;8.07;3.47;;;;;;;35.27;13.50;94665.50;5097526;28;20048;-48
2021/05/04 07:13:43;;;;;;;5.35;3.13;;;;;;;35.81;13.14;94670.66;5097690;28;20056;-53
2021/05/04 07:16:10;;;;;;;4.53;3.20;;;;;;;35.44;13.04;94664.94;5095559;28;20458;-65
2021/05/04 07:18:37;;;;;;;3.03;2.65;;;;;;;36.15;12.37;94654.31;5097574;28;20066;-42
2021/05/04 07:21:09;;;;;;;3.90;3.05;;;;;;;35.53;13.18;94664.25;5097530;28;20055;-48
2021/05/04 07:23:36;;;;;;;3.17;2.60;;;;;;;35.98;12.75;94653.00;5097363;28;20048;-65
2021/05/04 07:26:05;;;;;;;5.18;2.50;;;;;;;35.11;13.06;94658.22;5087197;28;20055;-60
2021/05/04 07:28:32;;;;;;;3.90;2.60;;;;;;;35.00;12.71;94663.25;5091362;28;20040;-61
2021/05/04 07:30:59;;;;;;;3.65;2.50;;;;;;;36.00;12.35;94661.47;5097137;28;20048;-42
2021/05/04 07:33:26;;;;;;;3.20;2.42;;;;;;;36.69;12.20;94655.81;5097184;28;20489;-44
2021/05/04 07:35:54;;;;;;;4.45;2.70;;;;;;;35.90;12.31;94659.88;5089238;28;20048;-65
2021/05/04 07:38:21;;;;;;;3.58;2.40;;;;;;;35.64;12.93;94656.47;5076318;28;20041;-64
2021/05/04 07:40:48;;;;;;;4.32;2.60;;;;;;;35.97;13.11;94659.66;5076728;28;20355;-55
2021/05/04 07:43:15;;;;;;;3.75;2.47;;;;;;;37.04;11.23;94659.16;5076754;28;20335;-42
2021/05/04 07:45:42;;;;;;;2.78;2.30;;;;;;;35.74;12.60;94657.34;5081722;28;20056;-40
2021/05/04 07:48:11;;;;;;;4.07;2.60;;;;;;;36.22;12.19;94652.56;5096943;28;20044;-41
2021/05/04 07:50:39;;;;;;;4.75;2.20;;;;;;;36.86;12.20;94652.88;5096790;28;20048;-41
2021/05/04 07:53:07;;;;;;;3.97;2.40;;;;;;;35.88;12.35;94656.09;5096714;28;20043;-41
2021/05/04 07:55:34;;;;;;;2.63;2.35;;;;;;;36.06;12.61;94659.69;5091863;28;20056;-42
2021/05/04 07:58:01;;;;;;;3.13;2.50;;;;;;;35.96;12.45;94658.13;5076620;28;20041;-41
2021/05/04 08:00:29;;;;;;;4.32;2.70;;;;;;;36.64;12.37;94650.94;5076482;28;20048;-40
2021/05/04 08:02:56;;;;;;;4.20;2.63;;;;;;;37.66;10.48;94650.00;5080105;28;20039;-41
2021/05/04 08:05:23;;;;;;;4.43;2.60;;;;;;;36.10;12.21;94646.72;5093419;28;20084;-42
2021/05/04 08:07:50;;;;;;;3.58;2.75;;;;;;;36.83;11.37;94648.34;5076296;28;20040;-44
2021/05/04 08:10:17;;;;;;;3.03;2.60;;;;;;;36.26;12.33;94645.00;5066867;28;20169;-43
2021/05/04 08:12:44;;;;;;;3.25;2.25;;;;;;;37.16;11.82;94632.22;5096316;28;20055;-40
2021/05/04 08:15:18;;;;;;;4.40;2.33;;;;;;;37.34;10.71;94630.31;5094920;28;20040;-41
2021/05/04 08:17:54;;;;;;;3.10;2.20;;;;;;;36.45;12.16;94627.59;5075986;28;20053;-41
2021/05/04 08:20:25;;;;;;;4.88;2.50;;;;;;;37.09;11.08;94624.34;5076057;28;20053;-43
2021/05/04 08:22:52;;;;;;;2.95;2.40;;;;;;;36.92;11.15;94623.84;5075894;28;20056;-42
2021/05/04 08:25:20;;;;;;;5.40;2.30;;;;;;;37.08;11.04;94615.41;5075469;28;20048;-41
2021/05/04 08:27:47;;;;;;;3.35;2.20;;;;;;;36.48;11.20;94626.69;5075858;28;20374;-42
2021/05/04 08:30:15;;;;;;;3.08;2.05;;;;;;;36.17;12.29;94618.50;5064492;28;20052;-42
2021/05/04 08:32:42;;;;;;;4.90;2.40;;;;;;;36.34;12.33;94613.63;5058525;28;20055;-42
2021/05/04 08:35:10;;;;;;;3.67;2.60;;;;;;;37.52;11.44;94612.44;5075850;28;20064;-41
2021/05/04 08:37:37;;;;;;;2.88;2.10;;;;;;;36.29;12.02;94609.50;5094385;28;20051;-43
2021/05/04 08:40:05;;;;;;;3.47;2.28;;;;;;;35.68;13.29;94612.88;5095978;28;20051;-47
2021/05/04 08:42:32;;;;;;;4.05;2.53;;;;;;;37.24;12.29;94606.97;5095860;28;20044;-51
2021/05/04 08:45:03;;;;;;;4.22;2.55;;;;;;;37.61;11.94;94596.84;5095965;28;20052;-49
2021/05/04 08:47:31;;;;;;;4.05;2.13;;;;;;;36.96;12.47;94597.22;5076311;28;20455;-48
2021/05/04 08:49:58;;;;;;;2.60;2.30;;;;;;;37.66;11.11;94592.72;5075855;28;20056;-58
2021/05/04 08:52:26;;;;;;;3.45;2.70;;;;;;;37.79;10.94;94596.09;5089757;28;20056;-55
2021/05/04 08:54:53;;;;;;;3.67;2.50;;;;;;;37.96;10.89;94599.97;5095849;28;20051;-41
2021/05/04 08:57:21;;;;;;;3.97;2.50;;;;;;;37.69;11.70;94599.25;5084730;28;20335;-43
2021/05/04 08:59:48;;;;;;;2.90;2.20;;;;;;;37.45;11.99;94596.38;5095433;28;20054;-43
2021/05/04 09:02:16;;;;;;;3.72;1.98;;;;;;;36.98;12.13;94589.38;5076800;28;20052;-42
2021/05/04 09:04:57;;;;;;;6.15;2.25;;;;;;;38.66;10.37;94588.28;5078005;28;20044;-43
2021/05/04 09:07:30;;;;;;;5.10;2.30;;;;;;;38.37;9.56;94595.06;5080243;28;20052;-42
2021/05/04 09:13:17;;;;;;;5.25;2.53;;;;;;;38.01;10.17;94585.00;5095426;28;20052;-63
2021/05/04 09:21:31;;;;;;;3.33;2.95;;;;;;;38.33;11.51;94572.63;5095403;28;20048;-57
2021/05/04 09:23:58;;;;;;;4.60;2.47;;;;;;;37.99;9.95;94560.13;5095391;28;20055;-49
2021/05/04 09:26:34;;;;;;;3.45;2.72;;;;;;;38.00;9.72;94555.41;5088720;28;20049;-53
2021/05/04 09:29:09;;;;;;;4.90;2.40;;;;;;;38.26;9.41;94562.06;5095308;28;20048;-49
2021/05/04 09:31:38;;;;;;;3.17;2.50;;;;;;;37.82;10.09;94562.44;5095351;28;20052;-42
2021/05/04 09:34:14;;;;;;;2.95;2.35;;;;;;;38.09;9.88;94552.66;5095205;28;20056;-43
2021/05/04 09:36:49;;;;;;;3.25;2.30;;;;;;;37.41;9.97;94549.44;5084249;28;20048;-40
2021/05/04 09:39:28;;;;;;;2.45;1.98;;;;;;;38.51;9.59;94555.41;5075140;28;20474;-54
2021/05/04 09:41:56;;;;;;;3.22;2.13;;;;;;;38.37;9.37;94543.19;5084318;28;20435;-40
2021/05/04 09:44:47;;;;;;;2.80;2.13;;;;;;;38.08;10.17;94551.91;5095265;28;20052;-52
2021/05/04 09:47:23;;;;;;;2.95;2.30;;;;;;;37.84;10.18;94543.66;5076261;28;20064;-60
2021/05/04 09:49:50;;;;;;;3.80;2.67;;;;;;;38.07;10.85;94533.28;5074926;28;20040;-49
2021/05/04 09:55:09;;;;;;;3.20;2.20;;;;;;;38.68;9.96;94534.72;5074928;28;20473;-47
2021/05/04 09:57:49;;;;;;;3.25;2.95;;;;;;;38.64;9.78;94530.63;5074588;28;20082;-41
2021/05/04 10:00:17;;;;;;;3.38;2.53;;;;;;;38.31;10.09;94531.41;5074864;28;20048;-56
2021/05/04 10:02:45;;;;;;;3.60;2.80;;;;;;;37.69;9.47;94531.81;5057264;28;20042;-57
2021/05/04 10:05:15;;;;;;;5.38;2.88;;;;;;;38.32;9.22;94538.38;5078980;28;20048;-54
2021/05/04 10:07:42;;;;;;;4.93;2.50;;;;;;;38.69;9.07;94532.72;5078399;28;20057;-63
2021/05/04 10:10:11;;;;;;;25.02;22.80;;;;;;;38.61;10.26;94523.34;5065005;28;20052;-41
2021/05/04 10:12:40;;;;;;;8.88;7.10;;;;;;;38.61;9.32;94521.38;5078019;28;20048;-48
2021/05/04 10:15:09;;;;;;;5.07;3.83;;;;;;;38.24;9.77;94520.78;5088682;28;20047;-41
2021/05/04 10:17:39;;;;;;;4.20;3.35;;;;;;;38.29;9.91;94514.72;5078512;28;20063;-40
2021/05/04 10:20:10;;;;;;;4.65;3.40;;;;;;;38.63;9.60;94512.75;5095315;28;20284;-43
2021/05/04 10:22:38;;;;;;;4.53;3.13;;;;;;;39.04;10.25;94520.06;5081151;28;20045;-56
2021/05/04 10:25:06;;;;;;;5.63;3.92;;;;;;;37.59;10.43;94509.28;5060686;28;20048;-44
2021/05/04 10:27:34;;;;;;;5.03;3.47;;;;;;;38.42;9.60;94512.53;5086884;28;20039;-49
2021/05/04 10:30:01;;;;;;;5.63;3.03;;;;;;;38.65;10.21;94508.31;5098385;28;20462;-57
2021/05/04 10:32:59;;;;;;;3.05;2.63;;;;;;;38.59;9.59;94495.75;5064956;28;20051;-42
2021/05/04 10:35:29;;;;;;;5.20;3.53;;;;;;;38.65;10.18;94510.31;5065883;28;20055;-56
2021/05/04 10:38:06;;;;;;;4.30;2.90;;;;;;;38.67;10.05;94508.63;5080377;28;20055;-55
2021/05/04 10:40:36;;;;;;;5.60;3.53;;;;;;;38.19;10.27;94497.63;5098330;28;20055;-53
2021/05/04 10:43:23;;;;;;;3.78;2.80;;;;;;;38.92;9.21;94493.72;5077862;28;20451;-48
2021/05/04 10:45:54;;;;;;;5.35;2.80;;;;;;;38.86;9.71;94492.88;5084305;28;20454;-55
2021/05/04 10:48:42;;;;;;;3.55;2.65;;;;;;;38.14;10.06;94486.56;5097453;28;20051;-54
2021/05/04 10:51:13;;;;;;;4.82;3.08;;;;;;;38.15;10.01;94477.16;5094189;28;20052;-53
2021/05/04 10:53:52;;;;;;;4.10;2.95;;;;;;;37.99;10.29;94482.97;5077690;28;20115;-57
2021/05/04 10:56:58;;;;;;;6.00;3.72;;;;;;;38.46;10.35;94465.94;5077701;28;20052;-50
2021/05/04 10:59:25;;;;;;;4.88;3.22;;;;;;;39.12;10.31;94461.09;5047500;28;20048;-41
2021/05/04 11:02:16;;;;;;;5.57;3.10;;;;;;;38.56;10.90;94459.22;5097434;28;20055;-41
2021/05/04 11:04:52;;;;;;;4.30;2.78;;;;;;;38.90;11.07;94463.38;5097951;28;20044;-39
2021/05/04 11:07:52;;;;;;;4.82;3.08;;;;;;;38.26;10.63;94458.34;5097650;28;20059;-58
2021/05/04 11:10:19;;;;;;;3.78;3.20;;;;;;;39.17;10.77;94457.72;5097751;28;20328;-40
2021/05/04 11:12:47;;;;;;;4.65;3.00;;;;;;;38.47;9.75;94457.28;5097268;28;20060;-41
2021/05/04 11:15:26;;;;;;;6.60;3.35;;;;;;;38.16;10.75;94454.09;5078426;28;20458;-40
2021/05/04 11:17:53;;;;;;;6.75;3.70;;;;;;;38.73;9.33;94452.13;5097472;28;20390;-40
2021/05/04 11:20:37;;;;;;;5.60;2.97;;;;;;;39.36;9.96;94458.31;5097483;28;20054;-40
2021/05/04 11:23:06;;;;;;;6.93;5.88;;;;;;;38.88;9.32;94452.16;5078279;28;20048;-39
2021/05/04 11:25:42;;;;;;;7.47;5.03;;;;;;;38.39;10.07;94439.75;5077293;28;20047;-39
2021/05/04 11:28:10;;;;;;;8.82;6.13;;;;;;;38.48;10.20;94438.91;5078662;28;20056;-44
2021/05/04 11:30:39;;;;;;;6.97;3.78;;;;;;;38.63;10.22;94442.50;5078845;28;20055;-46
2021/05/04 11:33:30;;;;;;;4.47;3.30;;;;;;;39.41;9.82;94430.31;5077978;28;20056;-56
2021/05/04 11:36:02;;;;;;;7.32;3.50;;;;;;;38.30;10.72;94426.16;5076848;28;20047;-46
2021/05/04 11:38:31;;;;;;;4.35;3.20;;;;;;;37.91;10.56;94431.47;5075694;28;20056;-44
2021/05/04 11:41:09;;;;;;;4.60;3.55;;;;;;;39.21;10.62;94429.44;5076684;28;20039;-45
2021/05/04 11:43:36;;;;;;;5.03;3.58;;;;;;;38.94;10.62;94422.97;5096864;28;20485;-42
2021/05/04 11:46:03;;;;;;;5.50;3.55;;;;;;;40.04;10.04;94421.88;5096658;28;20052;-43
2021/05/04 11:48:31;;;;;;;6.32;3.05;;;;;;;39.80;9.41;94416.50;5096932;28;20044;-43
2021/05/04 11:50:58;;;;;;;4.50;3.30;;;;;;;39.19;9.29;94410.03;5096414;28;20063;-56
2021/05/04 11:53:25;;;;;;;3.95;2.90;;;;;;;39.20;9.89;94400.59;5076462;28;20048;-45